Time;durP1;ratioP1;P1;durP2;ratioP2;P2;SDS_P1;SDS_P2;PMS_P1;PMS_P2;Temp;Humidity;BMP_temperature;BMP_pressure;BME280_temperature;BME280_humidity;BME280_pressure;Samples;Min_cycle;Max_cycle;Signal;HPM_P1;HPM_P2
2021/09/21 03:31:15;;;;;;;10.53;7.80;;;;;;;18.29;51.50;99503.88;7856579;23;20622;-79
2021/09/21 03:34:38;;;;;;;9.33;8.43;;;;;;;18.46;50.99;99504.84;6792745;29;21078;-80
2021/09/21 03:37:59;;;;;;;9.20;7.90;;;;;;;18.44;51.26;99506.16;6788427;29;20236;-81
2021/09/21 03:41:21;;;;;;;10.70;7.97;;;;;;;18.31;51.61;99520.91;6815509;29;20234;-80
2021/09/21 03:44:43;;;;;;;9.57;8.57;;;;;;;18.60;51.11;99519.09;6830905;29;20217;-80
2021/09/21 03:48:08;;;;;;;9.40;8.50;;;;;;;17.66;52.86;99515.66;6840583;29;20250;-79
2021/09/21 03:51:30;;;;;;;10.17;7.73;;;;;;;17.58;52.83;99535.09;6828188;29;20226;-81
2021/09/21 03:54:52;;;;;;;10.17;9.00;;;;;;;18.01;51.98;99516.56;6815574;29;20211;-82
2021/09/21 03:58:13;;;;;;;8.63;7.73;;;;;;;17.73;52.82;99532.75;6816067;28;20232;-79
2021/09/21 04:01:35;;;;;;;10.03;8.57;;;;;;;17.82;52.31;99534.09;6814441;29;20243;-80
2021/09/21 04:04:58;;;;;;;8.87;7.87;;;;;;;18.36;51.53;99531.94;6829747;29;20256;-79
2021/09/21 04:08:20;;;;;;;9.23;8.40;;;;;;;17.86;52.47;99533.38;6840805;28;20208;-79
2021/09/21 04:11:41;;;;;;;10.63;8.70;;;;;;;18.23;52.33;99526.66;6842795;29;20233;-80
2021/09/21 04:15:04;;;;;;;9.93;8.13;;;;;;;18.64;51.41;99534.75;6841679;29;20221;-78
2021/09/21 04:18:26;;;;;;;9.23;8.13;;;;;;;18.53;52.13;99540.25;6841369;29;20721;-80
2021/09/21 04:21:49;;;;;;;9.47;8.50;;;;;;;18.49;52.10;99511.75;6841785;29;20243;-80
2021/09/21 04:25:11;;;;;;;13.50;8.40;;;;;;;18.56;52.07;99540.59;6841645;29;20212;-81
2021/09/21 04:28:33;;;;;;;10.13;9.13;;;;;;;18.09;53.67;99544.34;6841668;29;20252;-80
2021/09/21 04:31:56;;;;;;;9.17;8.17;;;;;;;18.19;54.14;99547.34;6841613;28;20236;-80
2021/09/21 04:35:18;;;;;;;11.57;8.80;;;;;;;17.50;53.83;99491.78;6842589;28;20212;-79
2021/09/21 04:38:41;;;;;;;9.87;8.87;;;;;;;18.22;52.92;99559.69;6842424;28;20230;-80
2021/09/21 04:42:03;;;;;;;9.23;8.30;;;;;;;17.92;52.64;99565.19;6842682;28;20241;-80
2021/09/21 04:45:25;;;;;;;9.43;8.30;;;;;;;17.76;53.71;99575.94;6843008;28;20232;-80
2021/09/21 04:48:46;;;;;;;10.30;9.30;;;;;;;17.43;54.55;99575.56;6842694;28;20772;-80
2021/09/21 04:52:08;;;;;;;9.40;8.50;;;;;;;18.32;51.70;99579.06;6844390;28;20220;-79
2021/09/21 04:55:31;;;;;;;11.00;8.80;;;;;;;18.38;51.98;99578.09;6843789;28;20301;-79
2021/09/21 04:58:52;;;;;;;9.40;8.50;;;;;;;18.35;51.88;99605.91;6842279;28;20239;-82
2021/09/21 05:02:14;;;;;;;9.27;8.47;;;;;;;18.08;53.16;99605.47;6840990;28;20243;-81
2021/09/21 05:05:36;;;;;;;9.20;8.23;;;;;;;17.75;53.56;99615.22;6842556;28;20215;-81
2021/09/21 05:08:57;;;;;;;9.73;8.83;;;;;;;17.89;53.04;99625.69;6837858;28;20219;-79
2021/09/21 05:12:20;;;;;;;9.13;8.20;;;;;;;18.32;52.49;99617.28;6842355;28;20232;-81
2021/09/21 05:15:44;;;;;;;11.27;7.87;;;;;;;18.32;52.66;99629.03;6842421;28;20231;-80
2021/09/21 05:19:07;;;;;;;10.20;9.20;;;;;;;18.15;52.84;99627.19;6840171;28;20313;-80
2021/09/21 05:22:28;;;;;;;10.07;8.83;;;;;;;18.36;52.14;99634.88;6842913;29;20225;-80
2021/09/21 05:25:50;;;;;;;9.80;8.80;;;;;;;18.39;51.23;99648.06;6843043;29;20215;-79
2021/09/21 05:29:13;;;;;;;8.87;8.07;;;;;;;18.04;51.81;99653.38;6841984;29;20216;-80
2021/09/21 05:32:34;;;;;;;9.00;8.03;;;;;;;18.35;50.93;99664.06;6843627;29;20243;-79
2021/09/21 05:35:56;;;;;;;9.70;8.63;;;;;;;18.32;51.67;99667.28;6844165;29;20211;-80
2021/09/21 05:39:18;;;;;;;14.27;9.00;;;;;;;18.33;52.22;99679.03;6838955;29;20266;-79
2021/09/21 05:42:39;;;;;;;9.33;8.40;;;;;;;18.11;53.00;99667.75;6838427;29;20756;-80
2021/09/21 05:46:02;;;;;;;8.70;7.80;;;;;;;18.42;52.73;99674.88;6837522;28;20235;-80
2021/09/21 05:49:24;;;;;;;10.03;9.03;;;;;;;18.45;52.79;99672.50;6838025;29;20235;-79
2021/09/21 05:52:46;;;;;;;10.33;9.03;;;;;;;18.81;51.80;99666.03;6842197;28;20229;-80
2021/09/21 05:56:08;;;;;;;9.83;8.53;;;;;;;18.67;51.92;99665.44;6842903;29;20240;-79
2021/09/21 05:59:29;;;;;;;10.27;9.20;;;;;;;18.52;51.60;99654.13;6841405;29;20237;-79
2021/09/21 06:02:52;;;;;;;9.50;8.60;;;;;;;18.41;52.70;99670.50;6853767;29;20239;-81
2021/09/21 06:06:14;;;;;;;9.27;8.37;;;;;;;18.65;52.32;99658.53;6824367;28;20233;-80
2021/09/21 06:09:36;;;;;;;8.73;7.93;;;;;;;18.98;51.22;99626.81;6823268;28;20249;-79
2021/09/21 06:12:58;;;;;;;11.03;9.17;;;;;;;19.42;50.19;99660.91;6852587;28;20236;-80
2021/09/21 06:16:19;;;;;;;8.60;7.80;;;;;;;20.03;48.04;99647.34;6840586;28;20256;-81
2021/09/21 06:19:43;;;;;;;8.43;7.63;;;;;;;20.17;47.52;99657.78;6835614;29;20229;-80
2021/09/21 06:23:04;;;;;;;7.80;7.10;;;;;;;20.45;46.34;99668.72;6825140;29;20244;-81
2021/09/21 06:26:26;;;;;;;8.10;7.23;;;;;;;20.76;45.55;99668.13;6809471;29;20208;-80
2021/09/21 06:29:48;;;;;;;8.53;7.73;;;;;;;21.12;44.18;99659.44;6808226;29;20218;-81
2021/09/21 06:33:09;;;;;;;8.73;7.73;;;;;;;20.70;45.17;99674.63;6823137;29;20248;-81
2021/09/21 06:36:32;;;;;;;9.10;7.77;;;;;;;20.08;45.54;99685.81;6836083;29;20214;-80
2021/09/21 06:39:54;;;;;;;13.63;8.40;;;;;;;19.91;46.82;99685.75;6813538;29;20318;-81
2021/09/21 06:43:15;;;;;;;11.00;7.53;;;;;;;19.48;47.39;99706.44;6832214;29;20355;-81
2021/09/21 06:46:37;;;;;;;8.30;7.47;;;;;;;18.76;48.32;99709.63;6824239;28;20218;-81
2021/09/21 06:49:59;;;;;;;8.53;7.73;;;;;;;19.07;47.97;99717.50;6822722;29;20198;-81
2021/09/21 06:53:22;;;;;;;8.03;7.27;;;;;;;18.52;49.74;99725.13;6811806;29;20230;-81
2021/09/21 06:56:43;;;;;;;8.70;7.90;;;;;;;18.60;49.41;99733.00;6810235;29;20666;-81
2021/09/21 07:00:08;;;;;;;13.83;8.60;;;;;;;18.92;49.74;99723.41;6825603;29;20241;-81
2021/09/21 07:03:30;;;;;;;9.83;7.80;;;;;;;19.29;49.89;99730.34;6837530;28;20604;-81
2021/09/21 07:06:51;;;;;;;10.17;8.73;;;;;;;18.86;49.55;99727.09;6839745;29;20224;-81
2021/09/21 07:10:15;;;;;;;9.37;8.37;;;;;;;19.37;48.95;99729.16;6824338;29;20207;-81
2021/09/21 07:13:37;;;;;;;8.53;7.50;;;;;;;19.44;47.12;99721.66;6816319;29;20210;-81
2021/09/21 07:16:59;;;;;;;8.20;7.37;;;;;;;19.99;45.71;99753.78;6813935;29;20207;-81
2021/09/21 07:20:20;;;;;;;9.40;7.00;;;;;;;20.36;44.76;99755.13;6812426;29;20568;-80
2021/09/21 07:23:42;;;;;;;7.03;6.43;;;;;;;21.06;41.73;99763.81;6815237;29;20704;-81
2021/09/21 07:27:05;;;;;;;7.50;6.77;;;;;;;21.16;42.27;99767.53;6841186;29;20566;-80
2021/09/21 07:30:27;;;;;;;8.17;6.57;;;;;;;20.94;41.49;99763.88;6818308;29;20206;-79
2021/09/21 07:33:48;;;;;;;6.90;6.00;;;;;;;21.67;41.98;99765.31;6825091;29;20206;-85
2021/09/21 07:37:12;;;;;;;6.23;5.10;;;;;;;21.57;38.91;99767.06;6816298;29;20218;-81
2021/09/21 07:40:35;;;;;;;7.53;5.53;;;;;;;21.33;37.82;99777.44;6826279;28;20585;-79
2021/09/21 07:43:58;;;;;;;5.20;4.80;;;;;;;20.79;37.33;99766.34;6842163;28;20300;-80
2021/09/21 07:47:20;;;;;;;6.23;5.63;;;;;;;21.99;35.77;99784.72;6842482;29;20798;-80
2021/09/21 07:50:42;;;;;;;5.77;5.27;;;;;;;22.28;35.53;99780.69;6816675;29;20292;-80
2021/09/21 07:54:07;;;;;;;5.57;5.10;;;;;;;22.12;35.70;99789.84;6817846;29;20214;-80
2021/09/21 07:57:28;;;;;;;6.30;5.70;;;;;;;21.39;36.57;99786.56;6841979;28;20273;-80
2021/09/21 08:00:54;;;;;;;5.80;5.20;;;;;;;20.97;37.42;99787.22;6843517;29;20240;-79
2021/09/21 08:04:16;;;;;;;5.60;5.10;;;;;;;21.80;35.86;99795.19;6845987;29;20220;-80
2021/09/21 08:07:37;;;;;;;5.90;5.37;;;;;;;20.83;35.25;99799.56;6847628;28;20212;-80
2021/09/21 08:11:01;;;;;;;5.90;5.30;;;;;;;21.27;35.09;99803.13;6838987;29;20725;-81
2021/09/21 08:14:23;;;;;;;5.57;5.07;;;;;;;20.90;35.83;99814.81;6835449;28;20246;-80
2021/09/21 08:17:46;;;;;;;5.73;5.23;;;;;;;20.88;35.51;99803.25;6824724;28;20217;-81
2021/09/21 08:21:07;;;;;;;5.53;5.03;;;;;;;20.58;36.24;99804.59;6828969;28;20239;-81
2021/09/21 08:24:29;;;;;;;7.20;5.83;;;;;;;20.63;35.83;99810.16;6831708;29;20586;-80
2021/09/21 08:27:51;;;;;;;5.60;5.10;;;;;;;20.67;35.31;99806.69;6839239;29;20210;-81
2021/09/21 08:31:12;;;;;;;6.37;5.13;;;;;;;21.52;35.91;99816.41;6838226;29;20240;-82
2021/09/21 08:34:35;;;;;;;5.77;5.27;;;;;;;20.08;36.02;99831.78;6837364;29;20566;-81
2021/09/21 08:37:57;;;;;;;6.00;5.43;;;;;;;20.58;35.75;99801.84;6837387;28;20205;-81
2021/09/21 08:41:18;;;;;;;11.17;4.90;;;;;;;20.77;35.17;99824.13;6837669;28;20298;-81
2021/09/21 08:44:40;;;;;;;5.83;5.10;;;;;;;20.70;35.08;99825.34;6820750;28;20202;-82
2021/09/21 08:48:04;;;;;;;5.07;4.60;;;;;;;22.27;33.35;99809.25;6836149;29;20206;-81
2021/09/21 08:51:27;;;;;;;5.63;4.90;;;;;;;21.64;34.43;99823.47;6823431;28;20721;-81
2021/09/21 08:54:48;;;;;;;4.60;4.20;;;;;;;22.63;33.20;99825.09;6818411;29;20213;-81
2021/09/21 08:58:10;;;;;;;4.90;4.40;;;;;;;21.08;34.11;99835.69;6836351;29;20557;-80
2021/09/21 09:01:39;;;;;;;5.23;4.83;;;;;;;21.44;33.77;99836.88;6832219;29;20270;-81
2021/09/21 09:05:04;;;;;;;5.27;4.77;;;;;;;21.56;32.25;99788.22;6825900;29;20202;-81
2021/09/21 09:08:31;;;;;;;4.80;4.40;;;;;;;21.07;34.23;99839.50;6826805;28;20222;-81
2021/09/21 09:11:55;;;;;;;4.90;4.50;;;;;;;20.90;33.59;99835.91;6823963;29;20222;-81
2021/09/21 09:15:18;;;;;;;5.17;4.77;;;;;;;20.22;34.60;99854.25;6835809;28;20205;-81
2021/09/21 09:18:40;;;;;;;5.33;4.93;;;;;;;21.64;33.33;99839.09;6825875;29;20208;-80
2021/09/21 09:22:07;;;;;;;5.37;4.80;;;;;;;21.14;33.87;99844.56;6842285;28;20236;-80
2021/09/21 09:25:30;;;;;;;4.83;4.43;;;;;;;23.04;32.06;99839.03;6831126;28;20214;-80
2021/09/21 09:28:53;;;;;;;5.10;4.70;;;;;;;21.77;33.40;99838.78;6830725;28;20292;-80
2021/09/21 09:32:15;;;;;;;5.47;4.97;;;;;;;21.40;33.91;99841.19;6827742;29;20233;-80
2021/09/21 09:35:38;;;;;;;4.93;4.53;;;;;;;21.48;33.72;99854.50;6822647;29;20202;-81
2021/09/21 09:39:01;;;;;;;6.40;5.20;;;;;;;22.81;32.84;99850.34;6810082;28;20209;-78
2021/09/21 09:42:24;;;;;;;4.97;4.30;;;;;;;22.35;32.34;99856.34;6833094;28;20235;-80
2021/09/21 09:45:48;;;;;;;4.90;4.50;;;;;;;23.08;32.37;99834.63;6862460;28;20212;-81
2021/09/21 09:49:10;;;;;;;5.50;5.00;;;;;;;23.31;31.31;99825.25;6862210;28;20208;-81
2021/09/21 09:52:35;;;;;;;6.10;5.47;;;;;;;22.42;32.59;99856.16;6828472;28;20231;-79
2021/09/21 09:55:58;;;;;;;5.60;5.10;;;;;;;22.08;32.76;99849.94;6831722;28;20198;-80
2021/09/21 09:59:23;;;;;;;5.40;5.00;;;;;;;22.14;32.67;99859.09;6815845;29;20242;-83
2021/09/21 10:02:44;;;;;;;6.00;5.03;;;;;;;22.39;32.94;99832.78;6828840;29;20230;-82
2021/09/21 10:06:06;;;;;;;5.27;4.77;;;;;;;21.87;33.70;99830.69;6836585;29;20216;-81
2021/09/21 10:09:28;;;;;;;5.87;5.37;;;;;;;22.95;33.14;99865.31;6818513;29;20251;-81
2021/09/21 10:12:50;;;;;;;5.90;5.40;;;;;;;23.05;31.72;99859.09;6815399;29;20220;-86
2021/09/21 10:16:13;;;;;;;5.50;5.00;;;;;;;23.26;32.37;99853.53;6820462;29;20211;-82
2021/09/21 10:19:36;;;;;;;5.97;5.37;;;;;;;23.72;30.52;99865.78;6830577;29;20744;-80
2021/09/21 10:22:58;;;;;;;7.47;5.40;;;;;;;23.48;31.95;99870.00;6836240;28;20224;-83
2021/09/21 10:26:23;;;;;;;6.33;5.80;;;;;;;23.43;30.94;99867.19;6835049;29;20578;-81
2021/09/21 10:29:45;;;;;;;5.43;5.00;;;;;;;22.59;32.43;99867.97;6839723;28;20220;-82
2021/09/21 10:33:17;;;;;;;5.80;5.30;;;;;;;22.59;32.36;99868.78;6849288;28;20328;-81
2021/09/21 10:36:46;;;;;;;6.40;5.80;;;;;;;23.14;31.68;99874.06;6850474;28;20210;-82
2021/09/21 10:40:09;;;;;;;5.93;5.00;;;;;;;23.45;32.52;99874.09;6820370;29;20221;-82
2021/09/21 10:43:33;;;;;;;6.93;5.93;;;;;;;23.25;31.35;99875.84;6842092;28;20234;-82
2021/09/21 10:46:57;;;;;;;6.07;5.57;;;;;;;22.71;32.75;99838.41;6836237;28;20211;-81
2021/09/21 10:50:20;;;;;;;6.33;5.73;;;;;;;22.74;33.34;99866.22;6850451;28;20232;-81
2021/09/21 10:53:42;;;;;;;6.67;6.03;;;;;;;23.45;32.38;99845.72;6835393;28;20232;-82
2021/09/21 10:57:05;;;;;;;7.53;6.10;;;;;;;24.00;31.24;99846.16;6839515;29;20206;-82
2021/09/21 11:00:27;;;;;;;6.67;6.07;;;;;;;23.72;32.11;99863.84;6829089;28;20245;-82
2021/09/21 11:03:49;;;;;;;6.30;5.80;;;;;;;22.97;32.79;99857.66;6826339;29;20231;-81
2021/09/21 11:07:15;;;;;;;6.60;6.10;;;;;;;23.39;33.25;99850.38;6836310;29;20219;-82
2021/09/21 11:10:41;;;;;;;6.53;5.90;;;;;;;23.81;32.02;99862.28;6839179;28;20290;-82
2021/09/21 11:14:03;;;;;;;6.03;5.53;;;;;;;22.97;33.49;99857.66;6830443;28;20228;-82
2021/09/21 11:17:26;;;;;;;5.83;5.37;;;;;;;23.86;31.81;99859.56;6820333;29;20200;-82
2021/09/21 11:20:49;;;;;;;7.30;6.07;;;;;;;23.88;31.64;99860.13;6838008;28;20233;-80
2021/09/21 11:24:12;;;;;;;6.93;6.27;;;;;;;23.10;32.13;99868.25;6847448;28;20223;-82
2021/09/21 11:27:35;;;;;;;6.00;5.50;;;;;;;23.60;31.88;99845.88;6866200;28;20211;-81
2021/09/21 11:31:01;;;;;;;6.83;6.00;;;;;;;23.74;32.51;99864.44;6858966;28;20248;-82
2021/09/21 11:34:29;;;;;;;6.50;5.80;;;;;;;23.40;31.85;99868.56;6839090;28;20211;-82
2021/09/21 11:37:52;;;;;;;6.90;5.43;;;;;;;22.64;33.16;99857.00;6835070;28;20206;-82
2021/09/21 11:41:18;;;;;;;6.73;5.33;;;;;;;22.62;34.62;99861.94;6834122;28;20226;-82
2021/09/21 11:44:40;;;;;;;6.07;5.57;;;;;;;22.57;34.17;99850.88;6825947;29;20203;-82
2021/09/21 11:48:02;;;;;;;5.80;5.30;;;;;;;23.20;33.13;99799.56;6849234;28;20218;-82
2021/09/21 11:51:23;;;;;;;5.93;4.90;;;;;;;23.72;32.81;99852.00;6839616;28;20237;-82
2021/09/21 11:54:45;;;;;;;6.23;5.10;;;;;;;22.90;33.78;99859.75;6839683;29;20213;-81
2021/09/21 11:58:10;;;;;;;5.93;5.23;;;;;;;23.08;32.40;99851.16;6837238;29;20203;-82
2021/09/21 12:01:31;;;;;;;5.93;4.90;;;;;;;23.33;32.36;99845.09;6837665;29;20239;-79
2021/09/21 12:04:53;;;;;;;6.07;5.30;;;;;;;22.65;32.59;99855.94;6838005;28;20205;-82
2021/09/21 12:08:18;;;;;;;6.93;6.30;;;;;;;22.84;32.82;99838.81;6844757;29;20707;-82
2021/09/21 12:11:43;;;;;;;6.70;5.77;;;;;;;22.83;33.36;99853.66;6837361;29;20234;-83
2021/09/21 12:15:07;;;;;;;5.83;5.33;;;;;;;24.00;31.47;99837.88;6838061;29;20216;-82
2021/09/21 12:18:30;;;;;;;6.17;5.67;;;;;;;23.81;32.56;99842.13;6837877;29;20199;-82
2021/09/21 12:21:51;;;;;;;5.77;5.27;;;;;;;23.69;31.85;99822.22;6837239;28;20244;-82
2021/09/21 12:25:14;;;;;;;6.27;5.70;;;;;;;23.83;31.32;99827.00;6839998;29;20227;-81
2021/09/21 12:28:37;;;;;;;6.03;5.43;;;;;;;24.39;29.99;99831.75;6839694;28;20205;-82
2021/09/21 12:32:01;;;;;;;6.50;5.57;;;;;;;23.37;31.93;99827.78;6838413;28;20239;-82
2021/09/21 12:35:22;;;;;;;5.50;5.10;;;;;;;22.86;33.54;99836.66;6842196;29;20570;-80
2021/09/21 12:38:44;;;;;;;5.53;5.10;;;;;;;23.19;32.64;99838.38;6841016;29;20205;-81
2021/09/21 12:42:07;;;;;;;5.80;5.07;;;;;;;23.00;33.97;99839.78;6842524;29;20233;-81
2021/09/21 12:45:29;;;;;;;6.50;4.97;;;;;;;23.55;32.63;99840.31;6843229;29;20214;-80
2021/09/21 12:48:52;;;;;;;5.53;5.03;;;;;;;24.78;30.76;99840.47;6842419;29;20207;-80
2021/09/21 12:52:14;;;;;;;5.50;5.00;;;;;;;24.30;30.58;99838.88;6844059;29;20237;-82
2021/09/21 12:55:37;;;;;;;5.70;5.20;;;;;;;23.07;32.81;99838.47;6844715;29;20215;-80
2021/09/21 12:59:04;;;;;;;7.37;5.17;;;;;;;23.37;32.43;99825.03;6844121;29;20577;-81
2021/09/21 13:02:26;;;;;;;5.90;5.07;;;;;;;23.52;33.09;99849.94;6845146;28;20233;-82
2021/09/21 13:05:49;;;;;;;6.60;5.67;;;;;;;23.87;32.30;99852.09;6844014;29;20224;-80
2021/09/21 13:09:10;;;;;;;5.90;5.30;;;;;;;24.15;32.04;99840.72;6843855;29;20211;-82
2021/09/21 13:12:32;;;;;;;5.40;4.90;;;;;;;23.44;32.35;99855.94;6844861;29;20714;-82
2021/09/21 13:15:54;;;;;;;5.80;5.30;;;;;;;23.81;32.77;99856.75;6843314;29;20226;-81
2021/09/21 13:19:15;;;;;;;5.87;5.27;;;;;;;23.41;32.54;99856.44;6843153;29;20290;-81
2021/09/21 13:22:38;;;;;;;6.30;5.73;;;;;;;22.35;33.90;99836.28;6841201;29;20245;-82
2021/09/21 13:26:00;;;;;;;5.93;5.33;;;;;;;22.74;33.82;99852.47;6842869;29;20226;-81
2021/09/21 13:29:21;;;;;;;5.77;5.27;;;;;;;23.55;33.26;99857.66;6835876;29;20209;-81
2021/09/21 13:32:44;;;;;;;5.90;5.40;;;;;;;22.72;33.62;99860.13;6842571;28;20234;-80
2021/09/21 13:36:06;;;;;;;6.00;5.40;;;;;;;22.99;34.04;99844.47;6843927;29;20222;-80
2021/09/21 13:39:29;;;;;;;5.80;5.30;;;;;;;21.96;35.28;99857.44;6843686;28;20206;-80
2021/09/21 13:42:53;;;;;;;5.80;5.30;;;;;;;22.44;34.87;99835.63;6845231;29;20236;-80
2021/09/21 13:46:15;;;;;;;6.50;5.90;;;;;;;22.92;33.86;99852.09;6845323;29;20219;-80
2021/09/21 13:49:36;;;;;;;5.63;4.80;;;;;;;23.23;33.38;99842.22;6842938;29;20213;-82
2021/09/21 13:53:01;;;;;;;5.67;5.17;;;;;;;23.17;34.38;99822.09;6843320;29;20226;-81
2021/09/21 13:56:24;;;;;;;5.83;5.33;;;;;;;23.49;33.00;99783.56;6837431;29;20214;-81
2021/09/21 13:59:45;;;;;;;5.50;5.00;;;;;;;23.45;33.06;99829.22;6844271;29;20215;-80
2021/09/21 14:03:09;;;;;;;5.97;5.10;;;;;;;23.09;32.88;99836.31;6846464;28;20247;-82
2021/09/21 14:06:30;;;;;;;6.07;5.40;;;;;;;22.43;34.48;99824.88;6845084;29;20209;-81
2021/09/21 14:09:52;;;;;;;6.47;5.10;;;;;;;22.98;34.19;99845.56;6845962;29;20219;-81
2021/09/21 14:13:15;;;;;;;6.60;6.00;;;;;;;22.06;35.27;99834.81;6842859;28;20237;-81
2021/09/21 14:16:36;;;;;;;6.07;5.57;;;;;;;21.80;36.14;99839.13;6846353;28;20213;-81
2021/09/21 14:19:58;;;;;;;5.63;5.13;;;;;;;22.61;35.42;99830.84;6832064;28;20217;-81
2021/09/21 14:23:20;;;;;;;5.50;4.83;;;;;;;23.13;34.60;99831.13;6841160;28;20265;-81
2021/09/21 14:26:41;;;;;;;6.17;5.67;;;;;;;23.02;34.69;99838.44;6843544;28;20215;-80
2021/09/21 14:30:08;;;;;;;6.77;5.87;;;;;;;22.48;34.55;99827.69;6844274;28;20218;-80
2021/09/21 14:33:30;;;;;;;5.57;5.03;;;;;;;22.47;35.28;99831.50;6843703;28;20266;-80
2021/09/21 14:36:52;;;;;;;6.33;5.83;;;;;;;21.68;36.37;99834.81;6838915;29;20246;-81
2021/09/21 14:40:15;;;;;;;5.97;5.37;;;;;;;21.46;37.36;99820.13;6839262;28;20230;-81
2021/09/21 14:43:38;;;;;;;7.47;5.73;;;;;;;20.76;38.98;99829.84;6843166;29;20205;-79
2021/09/21 14:47:01;;;;;;;6.23;5.63;;;;;;;21.87;37.53;99837.03;6842030;29;20204;-80
2021/09/21 14:50:23;;;;;;;7.10;5.97;;;;;;;21.17;37.99;99835.88;6839577;29;20206;-81
2021/09/21 14:53:45;;;;;;;7.00;6.40;;;;;;;20.95;38.72;99849.72;6842514;29;20216;-81
2021/09/21 14:57:06;;;;;;;7.13;6.43;;;;;;;21.52;37.29;99847.44;6842278;29;20214;-80
2021/09/21 15:00:31;;;;;;;7.17;6.53;;;;;;;21.09;37.92;99810.75;6840775;29;20206;-81
2021/09/21 15:03:54;;;;;;;6.60;6.00;;;;;;;20.77;38.59;99856.22;6817622;28;20207;-80
2021/09/21 15:07:16;;;;;;;7.03;6.33;;;;;;;21.53;37.53;99838.09;6815586;29;20572;-79
2021/09/21 15:10:38;;;;;;;6.70;6.10;;;;;;;20.59;38.28;99826.28;6814797;29;20595;-80
2021/09/21 15:14:00;;;;;;;7.53;5.73;;;;;;;21.28;38.00;99839.59;6814784;29;20245;-79
2021/09/21 15:17:22;;;;;;;6.70;5.90;;;;;;;21.08;37.76;99858.47;6814637;29;20243;-79
2021/09/21 15:20:45;;;;;;;9.13;6.60;;;;;;;21.76;37.19;99853.56;6829913;29;20242;-81
2021/09/21 15:24:07;;;;;;;6.47;5.77;;;;;;;21.70;36.15;99833.47;6826989;29;20249;-81
2021/09/21 15:27:28;;;;;;;6.53;5.93;;;;;;;22.03;35.86;99825.16;6823423;29;20202;-79
2021/09/21 15:30:59;;;;;;;7.60;6.10;;;;;;;21.23;35.65;99733.38;6845999;23;20238;-88
2021/09/21 15:34:21;;;;;;;6.03;5.43;;;;;;;20.90;37.42;99844.13;6827732;28;20220;-88
2021/09/21 15:37:49;;;;;;;8.13;6.87;;;;;;;21.04;35.79;99774.19;6838557;28;20214;-88
2021/09/21 15:41:13;;;;;;;7.43;6.73;;;;;;;21.14;36.00;99736.78;6837847;28;20232;-88
2021/09/21 15:44:38;;;;;;;7.73;6.87;;;;;;;21.32;36.14;99865.47;6838767;28;20210;-87
2021/09/21 15:48:16;;;;;;;6.07;5.57;;;;;;;21.63;35.22;99730.38;6838722;28;20649;-88
2021/09/21 15:52:04;;;;;;;8.73;6.50;;;;;;;21.04;34.63;99654.34;6838713;28;20202;-88
2021/09/21 15:55:29;;;;;;;6.50;5.90;;;;;;;22.43;35.61;99888.91;6835552;28;20695;-88
2021/09/21 15:58:55;;;;;;;7.80;6.03;;;;;;;21.69;34.58;99756.84;6838796;28;20213;-88
2021/09/21 16:02:17;;;;;;;6.63;5.87;;;;;;;21.83;34.55;99774.63;6838609;28;20229;-88
2021/09/21 16:05:40;;;;;;;7.17;6.33;;;;;;;21.14;35.21;99720.34;6837911;28;20237;-88
2021/09/21 16:09:19;;;;;;;6.47;5.87;;;;;;;21.39;34.35;99759.97;6837804;28;20215;-88
2021/09/21 16:12:45;;;;;;;7.93;5.90;;;;;;;21.88;35.23;99904.59;6838602;28;20636;-87
2021/09/21 16:16:09;;;;;;;7.20;6.50;;;;;;;20.71;36.64;99853.63;6837925;28;20191;-88
2021/09/21 16:19:35;;;;;;;7.77;6.97;;;;;;;21.06;36.65;99859.78;6830667;28;20249;-88
2021/09/21 16:27:14;;;;;;;9.53;7.43;;;;;;;20.96;37.01;99750.75;6730327;29;20244;-88
2021/09/21 16:39:21;;;;;;;6.03;5.50;;;;;;;21.19;35.40;99753.34;6628732;29;20290;-88
2021/09/21 16:42:46;;;;;;;5.87;5.37;;;;;;;20.91;34.74;99686.78;6627897;29;20757;-87
2021/09/21 16:46:14;;;;;;;6.47;5.67;;;;;;;20.67;34.43;99704.44;6627532;29;20223;-88
2021/09/21 16:49:36;;;;;;;6.83;6.23;;;;;;;20.59;36.06;99735.84;6626834;29;20666;-88
2021/09/21 16:52:58;;;;;;;7.00;6.30;;;;;;;20.55;35.96;99736.56;6647124;29;20207;-88
2021/09/21 16:56:23;;;;;;;6.43;5.13;;;;;;;20.85;35.52;99792.75;6646409;29;20258;-88
2021/09/21 16:59:44;;;;;;;5.33;4.93;;;;;;;21.72;34.12;99912.84;6653015;29;20221;-88
2021/09/21 17:03:10;;;;;;;6.00;5.20;;;;;;;21.32;34.53;99868.22;6685602;29;20751;-88
2021/09/21 17:06:33;;;;;;;5.70;5.10;;;;;;;21.29;34.88;99854.97;6729442;29;20211;-88
2021/09/21 17:09:59;;;;;;;7.93;5.73;;;;;;;21.05;34.97;99845.22;6731802;29;20220;-89
2021/09/21 17:13:28;;;;;;;6.20;5.17;;;;;;;20.76;35.34;99824.38;6816301;29;20242;-88
2021/09/21 17:16:49;;;;;;;7.27;5.57;;;;;;;;;;6819769;29;20667;-88
2021/09/21 17:20:12;;;;;;;7.27;6.07;;;;;;;21.30;37.86;99930.75;6817860;29;20211;-88
2021/09/21 17:23:34;;;;;;;6.90;6.10;;;;;;;21.00;39.68;99929.34;6808296;29;20230;-88
2021/09/21 17:26:56;;;;;;;6.60;6.00;;;;;;;20.54;40.82;99847.25;6808777;29;20225;-88
2021/09/21 17:30:19;;;;;;;6.67;6.07;;;;;;;20.26;40.86;99806.97;6808377;29;20211;-88
2021/09/21 17:33:41;;;;;;;7.27;6.57;;;;;;;19.47;43.66;99834.19;6800839;29;20218;-88
2021/09/21 17:37:03;;;;;;;7.90;7.10;;;;;;;19.79;43.54;99884.75;6801580;29;20207;-87
2021/09/21 17:40:27;;;;;;;7.87;6.43;;;;;;;19.57;45.38;99940.31;6804333;29;20214;-87
2021/09/21 17:43:51;;;;;;;6.87;6.20;;;;;;;18.95;45.21;99856.03;6783270;29;20238;-88
2021/09/21 17:47:14;;;;;;;7.00;6.27;;;;;;;19.62;43.79;99883.78;6789419;29;20209;-88
2021/09/21 17:50:38;;;;;;;7.13;6.43;;;;;;;18.74;44.02;99777.34;6808422;29;20583;-88
2021/09/21 17:54:00;;;;;;;7.67;6.03;;;;;;;19.45;43.87;99885.53;6797917;29;20203;-87
2021/09/21 17:57:22;;;;;;;7.10;6.50;;;;;;;19.36;45.02;99966.28;6788631;29;20589;-87
2021/09/21 18:00:45;;;;;;;7.73;6.93;;;;;;;18.78;45.60;99855.03;6782617;29;20655;-87
2021/09/21 18:04:08;;;;;;;7.97;7.27;;;;;;;19.72;44.58;99948.88;6783378;29;20728;-88
2021/09/21 18:07:30;;;;;;;7.70;6.90;;;;;;;19.24;45.40;99875.19;6783387;29;20210;-87
2021/09/21 18:10:51;;;;;;;8.27;6.97;;;;;;;19.31;46.27;99922.41;6783208;29;20218;-87
2021/09/21 18:14:14;;;;;;;8.93;7.80;;;;;;;18.95;47.78;99974.44;6809710;29;20211;-88
2021/09/21 18:18:19;;;;;;;10.33;7.83;;;;;;;18.58;49.77;99985.63;6809172;29;20190;-87
2021/09/21 18:22:33;;;;;;;8.20;7.40;;;;;;;18.63;49.41;99983.03;6754088;29;20227;-88
2021/09/21 18:25:58;;;;;;;7.97;7.27;;;;;;;18.68;48.85;99988.63;6753604;29;20212;-88
2021/09/21 18:29:20;;;;;;;8.03;7.27;;;;;;;18.76;48.46;99978.22;6752889;29;20706;-87
2021/09/21 18:32:42;;;;;;;9.43;8.47;;;;;;;17.05;52.61;99923.78;6756010;29;20214;-87
2021/09/21 18:36:04;;;;;;;8.37;7.67;;;;;;;17.87;51.99;99995.34;6754977;29;20219;-88
2021/09/21 18:39:26;;;;;;;8.67;7.87;;;;;;;17.25;51.51;99883.56;6754913;29;20791;-88
2021/09/21 18:42:49;;;;;;;7.97;7.23;;;;;;;18.00;50.28;99959.75;6754405;29;20229;-88
2021/09/21 18:46:11;;;;;;;8.10;7.30;;;;;;;18.09;50.18;99994.69;6740444;29;20237;-89
2021/09/21 18:49:33;;;;;;;7.97;7.17;;;;;;;17.92;51.14;99990.06;6754873;29;20206;-88
2021/09/21 18:52:56;;;;;;;8.40;7.60;;;;;;;17.38;51.88;99918.94;6745853;29;20261;-88
2021/09/21 18:56:18;;;;;;;11.53;8.07;;;;;;;17.96;51.70;100016.66;6750454;29;20686;-88
2021/09/21 18:59:41;;;;;;;8.93;8.10;;;;;;;17.43;52.18;99940.94;6836631;28;20224;-88
2021/09/21 19:03:03;;;;;;;9.00;8.20;;;;;;;17.46;51.65;99935.03;6815390;29;20228;-88
2021/09/21 19:06:25;;;;;;;9.17;8.30;;;;;;;17.80;50.77;99973.56;6813530;29;20237;-88
2021/09/21 19:09:47;;;;;;;9.73;8.77;;;;;;;16.29;52.68;99852.06;6813401;29;20214;-89
2021/09/21 19:13:15;;;;;;;9.60;8.13;;;;;;;17.07;52.11;99919.78;6813828;29;20213;-88
2021/09/21 19:16:42;;;;;;;18.10;13.60;;;;;;;17.05;52.68;99957.28;6813662;29;20215;-88
2021/09/21 19:20:07;;;;;;;10.40;9.30;;;;;;;16.30;52.63;99837.44;6813188;29;20211;-88
2021/09/21 19:23:29;;;;;;;11.80;8.80;;;;;;;15.96;53.25;99818.75;6793693;29;20266;-88
2021/09/21 19:26:51;;;;;;;9.53;8.20;;;;;;;16.50;53.24;99889.91;6812707;29;20216;-88
2021/09/21 19:30:18;;;;;;;9.77;8.77;;;;;;;17.18;52.06;99967.28;6812950;29;20202;-88
2021/09/21 19:33:41;;;;;;;10.13;9.03;;;;;;;16.41;54.20;99962.00;6813263;29;20312;-88
2021/09/21 19:37:41;;;;;;;10.83;8.60;;;;;;;16.39;55.20;100006.84;6810989;29;20214;-88
2021/09/21 19:44:48;;;;;;;9.43;8.23;;;;;;;17.06;53.40;99999.88;6952020;23;20261;-80